sensor_id;sensor_type;location;lat;lon;timestamp;P1;durP1;ratioP1;P2;durP2;ratioP2
58372;SDS011;44177;43.356;27.672;2023-08-31T00:02:05;20.70;;;11.40;;
58372;SDS011;44177;43.356;27.672;2023-08-31T00:04:31;18.40;;;12.25;;
58372;SDS011;44177;43.356;27.672;2023-08-31T00:06:57;22.02;;;11.90;;
58372;SDS011;44177;43.356;27.672;2023-08-31T00:09:23;18.33;;;12.10;;
58372;SDS011;44177;43.356;27.672;2023-08-31T00:11:49;20.40;;;13.30;;
58372;SDS011;44177;43.356;27.672;2023-08-31T00:14:15;20.15;;;13.63;;
58372;SDS011;44177;43.356;27.672;2023-08-31T00:16:41;21.00;;;12.93;;
58372;SDS011;44177;43.356;27.672;2023-08-31T00:19:06;25.48;;;13.00;;
58372;SDS011;44177;43.356;27.672;2023-08-31T00:21:32;23.30;;;13.57;;
58372;SDS011;44177;43.356;27.672;2023-08-31T00:23:58;22.80;;;13.88;;
58372;SDS011;44177;43.356;27.672;2023-08-31T00:26:24;25.80;;;13.45;;
58372;SDS011;44177;43.356;27.672;2023-08-31T00:28:50;21.00;;;13.55;;
58372;SDS011;44177;43.356;27.672;2023-08-31T00:31:15;21.70;;;13.23;;
58372;SDS011;44177;43.356;27.672;2023-08-31T00:33:41;26.70;;;14.38;;
58372;SDS011;44177;43.356;27.672;2023-08-31T00:36:06;26.95;;;13.90;;
58372;SDS011;44177;43.356;27.672;2023-08-31T00:38:32;26.40;;;14.98;;
58372;SDS011;44177;43.356;27.672;2023-08-31T00:40:58;24.73;;;14.18;;
58372;SDS011;44177;43.356;27.672;2023-08-31T00:43:23;27.48;;;13.50;;
58372;SDS011;44177;43.356;27.672;2023-08-31T00:45:50;19.63;;;13.65;;
58372;SDS011;44177;43.356;27.672;2023-08-31T00:48:17;23.38;;;13.35;;
58372;SDS011;44177;43.356;27.672;2023-08-31T00:50:47;19.30;;;12.80;;
58372;SDS011;44177;43.356;27.672;2023-08-31T00:53:13;22.50;;;13.02;;
58372;SDS011;44177;43.356;27.672;2023-08-31T00:55:40;23.02;;;13.18;;
58372;SDS011;44177;43.356;27.672;2023-08-31T00:58:06;22.50;;;12.68;;
58372;SDS011;44177;43.356;27.672;2023-08-31T01:03:49;20.38;;;12.50;;
58372;SDS011;44177;43.356;27.672;2023-08-31T01:08:59;22.35;;;12.63;;
58372;SDS011;44177;43.356;27.672;2023-08-31T01:11:40;18.13;;;12.25;;
58372;SDS011;44177;43.356;27.672;2023-08-31T01:14:23;23.55;;;12.02;;
58372;SDS011;44177;43.356;27.672;2023-08-31T01:16:50;22.00;;;12.75;;
58372;SDS011;44177;43.356;27.672;2023-08-31T01:22:05;20.25;;;12.57;;
58372;SDS011;44177;43.356;27.672;2023-08-31T01:24:36;18.80;;;12.35;;
58372;SDS011;44177;43.356;27.672;2023-08-31T01:27:02;21.67;;;11.93;;
58372;SDS011;44177;43.356;27.672;2023-08-31T01:29:29;18.50;;;11.95;;
58372;SDS011;44177;43.356;27.672;2023-08-31T01:31:55;15.85;;;11.02;;
58372;SDS011;44177;43.356;27.672;2023-08-31T01:34:33;14.95;;;10.63;;
58372;SDS011;44177;43.356;27.672;2023-08-31T01:37:03;14.82;;;10.93;;
58372;SDS011;44177;43.356;27.672;2023-08-31T01:39:39;15.00;;;10.68;;
58372;SDS011;44177;43.356;27.672;2023-08-31T01:42:10;15.95;;;10.90;;
58372;SDS011;44177;43.356;27.672;2023-08-31T01:44:38;14.77;;;11.00;;
58372;SDS011;44177;43.356;27.672;2023-08-31T01:47:05;15.07;;;11.05;;
58372;SDS011;44177;43.356;27.672;2023-08-31T01:49:35;13.40;;;9.45;;
58372;SDS011;44177;43.356;27.672;2023-08-31T01:52:02;12.27;;;9.40;;
58372;SDS011;44177;43.356;27.672;2023-08-31T01:54:27;10.55;;;8.75;;
58372;SDS011;44177;43.356;27.672;2023-08-31T01:56:53;10.40;;;8.70;;
58372;SDS011;44177;43.356;27.672;2023-08-31T01:59:18;9.70;;;7.88;;
58372;SDS011;44177;43.356;27.672;2023-08-31T02:01:43;9.95;;;7.97;;
58372;SDS011;44177;43.356;27.672;2023-08-31T02:04:09;9.63;;;7.95;;
58372;SDS011;44177;43.356;27.672;2023-08-31T02:06:34;9.90;;;7.50;;
58372;SDS011;44177;43.356;27.672;2023-08-31T02:09:00;9.80;;;8.00;;
58372;SDS011;44177;43.356;27.672;2023-08-31T02:11:25;10.32;;;7.55;;
58372;SDS011;44177;43.356;27.672;2023-08-31T02:13:50;8.95;;;7.68;;
58372;SDS011;44177;43.356;27.672;2023-08-31T02:16:16;9.40;;;7.40;;
58372;SDS011;44177;43.356;27.672;2023-08-31T02:18:41;9.20;;;7.40;;
58372;SDS011;44177;43.356;27.672;2023-08-31T02:21:07;8.13;;;6.90;;
58372;SDS011;44177;43.356;27.672;2023-08-31T02:23:32;9.95;;;7.25;;
58372;SDS011;44177;43.356;27.672;2023-08-31T02:25:58;9.35;;;7.13;;
58372;SDS011;44177;43.356;27.672;2023-08-31T02:28:23;8.07;;;7.28;;
58372;SDS011;44177;43.356;27.672;2023-08-31T02:30:57;9.27;;;7.38;;
58372;SDS011;44177;43.356;27.672;2023-08-31T02:33:26;8.45;;;7.05;;
58372;SDS011;44177;43.356;27.672;2023-08-31T02:35:53;9.43;;;7.05;;
58372;SDS011;44177;43.356;27.672;2023-08-31T02:38:19;7.95;;;7.03;;
58372;SDS011;44177;43.356;27.672;2023-08-31T02:40:47;12.05;;;8.02;;
58372;SDS011;44177;43.356;27.672;2023-08-31T02:43:14;9.23;;;7.38;;
58372;SDS011;44177;43.356;27.672;2023-08-31T02:45:39;9.25;;;6.55;;
58372;SDS011;44177;43.356;27.672;2023-08-31T02:48:08;10.55;;;6.85;;
58372;SDS011;44177;43.356;27.672;2023-08-31T02:50:34;8.93;;;6.95;;
58372;SDS011;44177;43.356;27.672;2023-08-31T02:52:59;9.52;;;7.18;;
58372;SDS011;44177;43.356;27.672;2023-08-31T02:55:25;9.07;;;6.95;;
58372;SDS011;44177;43.356;27.672;2023-08-31T02:57:50;9.48;;;6.75;;
58372;SDS011;44177;43.356;27.672;2023-08-31T03:00:16;9.07;;;7.25;;
58372;SDS011;44177;43.356;27.672;2023-08-31T03:02:42;9.02;;;8.10;;
58372;SDS011;44177;43.356;27.672;2023-08-31T03:05:08;8.77;;;7.25;;
58372;SDS011;44177;43.356;27.672;2023-08-31T03:07:34;9.70;;;6.93;;
58372;SDS011;44177;43.356;27.672;2023-08-31T03:10:00;10.95;;;7.80;;
58372;SDS011;44177;43.356;27.672;2023-08-31T03:12:25;11.43;;;7.85;;
58372;SDS011;44177;43.356;27.672;2023-08-31T03:14:50;11.63;;;7.30;;
58372;SDS011;44177;43.356;27.672;2023-08-31T03:17:16;9.00;;;7.95;;
58372;SDS011;44177;43.356;27.672;2023-08-31T03:19:42;10.90;;;7.90;;
58372;SDS011;44177;43.356;27.672;2023-08-31T03:22:07;11.68;;;7.85;;
58372;SDS011;44177;43.356;27.672;2023-08-31T03:24:33;9.38;;;7.85;;
58372;SDS011;44177;43.356;27.672;2023-08-31T03:26:58;9.90;;;8.30;;
58372;SDS011;44177;43.356;27.672;2023-08-31T03:29:24;9.65;;;8.23;;
58372;SDS011;44177;43.356;27.672;2023-08-31T03:31:49;13.07;;;8.25;;
58372;SDS011;44177;43.356;27.672;2023-08-31T03:34:15;12.27;;;8.63;;
58372;SDS011;44177;43.356;27.672;2023-08-31T03:36:40;10.50;;;8.82;;
58372;SDS011;44177;43.356;27.672;2023-08-31T03:39:06;12.05;;;8.95;;
58372;SDS011;44177;43.356;27.672;2023-08-31T03:41:31;13.95;;;9.55;;
58372;SDS011;44177;43.356;27.672;2023-08-31T03:43:57;12.25;;;10.10;;
58372;SDS011;44177;43.356;27.672;2023-08-31T03:46:23;18.27;;;9.90;;
58372;SDS011;44177;43.356;27.672;2023-08-31T03:48:49;13.30;;;10.10;;
58372;SDS011;44177;43.356;27.672;2023-08-31T03:51:15;12.18;;;9.65;;
58372;SDS011;44177;43.356;27.672;2023-08-31T03:53:40;12.68;;;10.48;;
58372;SDS011;44177;43.356;27.672;2023-08-31T03:56:06;15.13;;;10.38;;
58372;SDS011;44177;43.356;27.672;2023-08-31T03:58:31;12.73;;;9.88;;
58372;SDS011;44177;43.356;27.672;2023-08-31T04:00:57;12.35;;;10.02;;
58372;SDS011;44177;43.356;27.672;2023-08-31T04:03:23;14.10;;;10.45;;
58372;SDS011;44177;43.356;27.672;2023-08-31T04:05:53;13.55;;;10.27;;
58372;SDS011;44177;43.356;27.672;2023-08-31T04:08:19;11.25;;;10.05;;
58372;SDS011;44177;43.356;27.672;2023-08-31T04:10:45;13.38;;;9.73;;
58372;SDS011;44177;43.356;27.672;2023-08-31T04:13:10;15.23;;;11.43;;
58372;SDS011;44177;43.356;27.672;2023-08-31T04:15:36;14.35;;;11.40;;
58372;SDS011;44177;43.356;27.672;2023-08-31T04:18:01;16.25;;;12.02;;
58372;SDS011;44177;43.356;27.672;2023-08-31T04:20:27;15.18;;;11.30;;
58372;SDS011;44177;43.356;27.672;2023-08-31T04:22:52;14.23;;;11.60;;
58372;SDS011;44177;43.356;27.672;2023-08-31T04:25:18;15.00;;;11.70;;
58372;SDS011;44177;43.356;27.672;2023-08-31T04:27:43;15.60;;;11.75;;
58372;SDS011;44177;43.356;27.672;2023-08-31T04:30:11;15.55;;;11.57;;
58372;SDS011;44177;43.356;27.672;2023-08-31T04:32:37;20.98;;;15.23;;
58372;SDS011;44177;43.356;27.672;2023-08-31T04:35:03;18.98;;;13.73;;
58372;SDS011;44177;43.356;27.672;2023-08-31T04:37:31;16.95;;;12.30;;
58372;SDS011;44177;43.356;27.672;2023-08-31T04:39:57;16.50;;;11.77;;
58372;SDS011;44177;43.356;27.672;2023-08-31T04:42:23;14.48;;;10.93;;
58372;SDS011;44177;43.356;27.672;2023-08-31T04:44:49;14.73;;;12.15;;
58372;SDS011;44177;43.356;27.672;2023-08-31T04:47:14;16.10;;;12.75;;
58372;SDS011;44177;43.356;27.672;2023-08-31T04:49:40;14.80;;;12.45;;
58372;SDS011;44177;43.356;27.672;2023-08-31T04:52:05;17.63;;;11.65;;
58372;SDS011;44177;43.356;27.672;2023-08-31T04:54:31;15.55;;;11.40;;
58372;SDS011;44177;43.356;27.672;2023-08-31T04:56:56;17.65;;;11.40;;
58372;SDS011;44177;43.356;27.672;2023-08-31T04:59:22;12.45;;;10.52;;
58372;SDS011;44177;43.356;27.672;2023-08-31T05:01:47;14.48;;;10.60;;
58372;SDS011;44177;43.356;27.672;2023-08-31T05:04:12;16.02;;;11.02;;
58372;SDS011;44177;43.356;27.672;2023-08-31T05:06:38;19.10;;;14.00;;
58372;SDS011;44177;43.356;27.672;2023-08-31T05:09:03;18.45;;;13.63;;
58372;SDS011;44177;43.356;27.672;2023-08-31T05:11:30;19.73;;;13.05;;
58372;SDS011;44177;43.356;27.672;2023-08-31T05:13:56;17.17;;;11.02;;
58372;SDS011;44177;43.356;27.672;2023-08-31T05:16:21;13.85;;;10.32;;
58372;SDS011;44177;43.356;27.672;2023-08-31T05:18:48;13.50;;;10.05;;
58372;SDS011;44177;43.356;27.672;2023-08-31T05:21:14;13.35;;;11.30;;
58372;SDS011;44177;43.356;27.672;2023-08-31T05:23:39;13.50;;;9.75;;
58372;SDS011;44177;43.356;27.672;2023-08-31T05:26:05;20.08;;;9.75;;
58372;SDS011;44177;43.356;27.672;2023-08-31T05:28:30;13.30;;;9.40;;
58372;SDS011;44177;43.356;27.672;2023-08-31T05:30:56;14.95;;;10.68;;
58372;SDS011;44177;43.356;27.672;2023-08-31T05:33:23;18.45;;;11.18;;
58372;SDS011;44177;43.356;27.672;2023-08-31T05:35:50;19.75;;;11.95;;
58372;SDS011;44177;43.356;27.672;2023-08-31T05:38:16;18.70;;;12.13;;
58372;SDS011;44177;43.356;27.672;2023-08-31T05:40:41;15.80;;;11.43;;
58372;SDS011;44177;43.356;27.672;2023-08-31T05:43:14;21.73;;;11.90;;
58372;SDS011;44177;43.356;27.672;2023-08-31T05:45:39;16.63;;;11.60;;
58372;SDS011;44177;43.356;27.672;2023-08-31T05:48:05;16.02;;;10.65;;
58372;SDS011;44177;43.356;27.672;2023-08-31T05:50:31;23.00;;;12.00;;
58372;SDS011;44177;43.356;27.672;2023-08-31T05:52:56;15.48;;;11.55;;
58372;SDS011;44177;43.356;27.672;2023-08-31T05:55:22;15.60;;;11.50;;
58372;SDS011;44177;43.356;27.672;2023-08-31T05:57:47;15.07;;;10.82;;
58372;SDS011;44177;43.356;27.672;2023-08-31T06:00:13;19.77;;;13.18;;
58372;SDS011;44177;43.356;27.672;2023-08-31T06:02:39;19.15;;;12.75;;
58372;SDS011;44177;43.356;27.672;2023-08-31T06:05:04;20.75;;;13.70;;
58372;SDS011;44177;43.356;27.672;2023-08-31T06:07:31;24.83;;;13.50;;
58372;SDS011;44177;43.356;27.672;2023-08-31T06:09:56;18.08;;;12.70;;
58372;SDS011;44177;43.356;27.672;2023-08-31T06:12:22;18.02;;;11.95;;
58372;SDS011;44177;43.356;27.672;2023-08-31T06:14:48;21.25;;;12.45;;
58372;SDS011;44177;43.356;27.672;2023-08-31T06:17:13;15.38;;;11.18;;
58372;SDS011;44177;43.356;27.672;2023-08-31T06:19:40;17.00;;;11.60;;
58372;SDS011;44177;43.356;27.672;2023-08-31T06:22:06;15.90;;;10.73;;
58372;SDS011;44177;43.356;27.672;2023-08-31T06:24:32;15.95;;;10.30;;
58372;SDS011;44177;43.356;27.672;2023-08-31T06:26:58;15.95;;;10.48;;
58372;SDS011;44177;43.356;27.672;2023-08-31T06:29:23;14.43;;;10.25;;
58372;SDS011;44177;43.356;27.672;2023-08-31T06:31:49;13.98;;;9.13;;
58372;SDS011;44177;43.356;27.672;2023-08-31T06:34:14;12.70;;;9.70;;
58372;SDS011;44177;43.356;27.672;2023-08-31T06:36:40;18.08;;;9.80;;
58372;SDS011;44177;43.356;27.672;2023-08-31T06:39:05;11.75;;;9.18;;
58372;SDS011;44177;43.356;27.672;2023-08-31T06:41:31;14.13;;;9.82;;
58372;SDS011;44177;43.356;27.672;2023-08-31T06:43:57;14.05;;;8.88;;
58372;SDS011;44177;43.356;27.672;2023-08-31T06:46:22;15.45;;;9.07;;
58372;SDS011;44177;43.356;27.672;2023-08-31T06:48:48;20.40;;;9.65;;
58372;SDS011;44177;43.356;27.672;2023-08-31T06:51:14;32.22;;;10.02;;
58372;SDS011;44177;43.356;27.672;2023-08-31T06:53:41;12.40;;;8.48;;
58372;SDS011;44177;43.356;27.672;2023-08-31T06:56:07;10.18;;;8.60;;
58372;SDS011;44177;43.356;27.672;2023-08-31T06:58:32;12.13;;;9.20;;
58372;SDS011;44177;43.356;27.672;2023-08-31T07:00:58;11.18;;;8.27;;
58372;SDS011;44177;43.356;27.672;2023-08-31T07:03:23;9.85;;;8.43;;
58372;SDS011;44177;43.356;27.672;2023-08-31T07:05:49;9.02;;;8.10;;
58372;SDS011;44177;43.356;27.672;2023-08-31T07:08:14;11.32;;;8.77;;
58372;SDS011;44177;43.356;27.672;2023-08-31T07:10:39;8.73;;;7.85;;
58372;SDS011;44177;43.356;27.672;2023-08-31T07:13:05;13.10;;;7.70;;
58372;SDS011;44177;43.356;27.672;2023-08-31T07:15:30;9.85;;;7.82;;
58372;SDS011;44177;43.356;27.672;2023-08-31T07:17:56;13.38;;;8.05;;
58372;SDS011;44177;43.356;27.672;2023-08-31T07:20:22;8.98;;;7.40;;
58372;SDS011;44177;43.356;27.672;2023-08-31T07:22:47;12.30;;;8.07;;
58372;SDS011;44177;43.356;27.672;2023-08-31T07:25:13;8.38;;;7.55;;
58372;SDS011;44177;43.356;27.672;2023-08-31T07:27:38;10.65;;;7.50;;
58372;SDS011;44177;43.356;27.672;2023-08-31T07:30:04;13.90;;;7.88;;
58372;SDS011;44177;43.356;27.672;2023-08-31T07:32:31;13.23;;;6.95;;
58372;SDS011;44177;43.356;27.672;2023-08-31T07:34:57;9.77;;;6.57;;
58372;SDS011;44177;43.356;27.672;2023-08-31T07:37:22;9.90;;;6.30;;
58372;SDS011;44177;43.356;27.672;2023-08-31T07:39:48;9.65;;;6.32;;
58372;SDS011;44177;43.356;27.672;2023-08-31T07:42:13;7.90;;;5.32;;
58372;SDS011;44177;43.356;27.672;2023-08-31T07:44:39;6.80;;;5.25;;
58372;SDS011;44177;43.356;27.672;2023-08-31T07:47:06;8.48;;;5.63;;
58372;SDS011;44177;43.356;27.672;2023-08-31T07:49:32;12.25;;;6.80;;
58372;SDS011;44177;43.356;27.672;2023-08-31T07:51:58;6.70;;;6.10;;
58372;SDS011;44177;43.356;27.672;2023-08-31T07:54:23;8.75;;;5.93;;
58372;SDS011;44177;43.356;27.672;2023-08-31T07:56:49;6.70;;;6.00;;
58372;SDS011;44177;43.356;27.672;2023-08-31T07:59:14;6.72;;;6.10;;
58372;SDS011;44177;43.356;27.672;2023-08-31T08:01:41;8.95;;;6.78;;
58372;SDS011;44177;43.356;27.672;2023-08-31T08:04:06;11.05;;;7.00;;
58372;SDS011;44177;43.356;27.672;2023-08-31T08:06:32;7.45;;;6.72;;
58372;SDS011;44177;43.356;27.672;2023-08-31T08:08:57;12.98;;;7.47;;
58372;SDS011;44177;43.356;27.672;2023-08-31T08:11:23;7.53;;;6.18;;
58372;SDS011;44177;43.356;27.672;2023-08-31T08:13:48;13.63;;;7.20;;
58372;SDS011;44177;43.356;27.672;2023-08-31T08:16:14;7.75;;;6.70;;
58372;SDS011;44177;43.356;27.672;2023-08-31T08:18:39;8.77;;;6.65;;
58372;SDS011;44177;43.356;27.672;2023-08-31T08:21:05;9.85;;;6.72;;
58372;SDS011;44177;43.356;27.672;2023-08-31T08:23:31;11.10;;;7.32;;
58372;SDS011;44177;43.356;27.672;2023-08-31T08:25:56;8.50;;;7.68;;
58372;SDS011;44177;43.356;27.672;2023-08-31T08:28:24;8.95;;;8.00;;
58372;SDS011;44177;43.356;27.672;2023-08-31T08:30:50;7.70;;;6.97;;
58372;SDS011;44177;43.356;27.672;2023-08-31T08:33:15;8.50;;;7.65;;
58372;SDS011;44177;43.356;27.672;2023-08-31T08:35:41;8.45;;;7.22;;
58372;SDS011;44177;43.356;27.672;2023-08-31T08:38:06;7.85;;;7.10;;
58372;SDS011;44177;43.356;27.672;2023-08-31T08:40:32;7.53;;;6.82;;
58372;SDS011;44177;43.356;27.672;2023-08-31T08:43:00;9.55;;;6.75;;
58372;SDS011;44177;43.356;27.672;2023-08-31T08:45:26;8.07;;;6.47;;
58372;SDS011;44177;43.356;27.672;2023-08-31T08:47:55;8.82;;;6.55;;
58372;SDS011;44177;43.356;27.672;2023-08-31T08:50:22;8.18;;;6.40;;
58372;SDS011;44177;43.356;27.672;2023-08-31T08:52:49;14.90;;;6.90;;
58372;SDS011;44177;43.356;27.672;2023-08-31T08:55:15;8.10;;;5.97;;
58372;SDS011;44177;43.356;27.672;2023-08-31T08:57:41;13.05;;;6.43;;
58372;SDS011;44177;43.356;27.672;2023-08-31T09:00:07;17.80;;;6.07;;
58372;SDS011;44177;43.356;27.672;2023-08-31T09:02:33;6.95;;;6.25;;
58372;SDS011;44177;43.356;27.672;2023-08-31T09:04:58;8.85;;;6.25;;
58372;SDS011;44177;43.356;27.672;2023-08-31T09:07:24;12.15;;;6.70;;
58372;SDS011;44177;43.356;27.672;2023-08-31T09:09:50;8.07;;;5.93;;
58372;SDS011;44177;43.356;27.672;2023-08-31T09:12:17;7.35;;;6.45;;
58372;SDS011;44177;43.356;27.672;2023-08-31T09:14:42;10.18;;;6.00;;
58372;SDS011;44177;43.356;27.672;2023-08-31T09:17:08;7.13;;;6.43;;
58372;SDS011;44177;43.356;27.672;2023-08-31T09:19:33;7.10;;;6.35;;
58372;SDS011;44177;43.356;27.672;2023-08-31T09:22:00;8.68;;;7.20;;
58372;SDS011;44177;43.356;27.672;2023-08-31T09:24:25;10.30;;;6.50;;
58372;SDS011;44177;43.356;27.672;2023-08-31T09:26:55;6.65;;;5.38;;
58372;SDS011;44177;43.356;27.672;2023-08-31T09:29:23;6.60;;;5.57;;
58372;SDS011;44177;43.356;27.672;2023-08-31T09:31:50;10.38;;;6.43;;
58372;SDS011;44177;43.356;27.672;2023-08-31T09:34:16;7.35;;;5.85;;
58372;SDS011;44177;43.356;27.672;2023-08-31T09:36:42;7.32;;;5.75;;
58372;SDS011;44177;43.356;27.672;2023-08-31T09:39:09;7.72;;;5.80;;
58372;SDS011;44177;43.356;27.672;2023-08-31T09:41:41;7.85;;;5.82;;
58372;SDS011;44177;43.356;27.672;2023-08-31T09:44:18;9.65;;;5.50;;
58372;SDS011;44177;43.356;27.672;2023-08-31T09:46:44;6.72;;;6.03;;
58372;SDS011;44177;43.356;27.672;2023-08-31T09:49:11;8.95;;;6.03;;
58372;SDS011;44177;43.356;27.672;2023-08-31T09:51:39;6.88;;;5.22;;
58372;SDS011;44177;43.356;27.672;2023-08-31T09:54:09;9.07;;;6.05;;
58372;SDS011;44177;43.356;27.672;2023-08-31T09:56:38;6.63;;;5.50;;
58372;SDS011;44177;43.356;27.672;2023-08-31T09:59:07;8.00;;;5.20;;
58372;SDS011;44177;43.356;27.672;2023-08-31T10:01:34;8.05;;;5.40;;
58372;SDS011;44177;43.356;27.672;2023-08-31T10:04:00;6.07;;;5.03;;
58372;SDS011;44177;43.356;27.672;2023-08-31T10:06:27;7.00;;;5.70;;
58372;SDS011;44177;43.356;27.672;2023-08-31T10:08:54;5.82;;;5.22;;
58372;SDS011;44177;43.356;27.672;2023-08-31T10:11:20;4.40;;;3.85;;
58372;SDS011;44177;43.356;27.672;2023-08-31T10:13:47;7.10;;;4.70;;
58372;SDS011;44177;43.356;27.672;2023-08-31T10:16:14;5.63;;;4.50;;
58372;SDS011;44177;43.356;27.672;2023-08-31T10:18:41;18.05;;;5.60;;
58372;SDS011;44177;43.356;27.672;2023-08-31T10:21:06;7.97;;;5.43;;
58372;SDS011;44177;43.356;27.672;2023-08-31T10:23:32;8.80;;;5.88;;
58372;SDS011;44177;43.356;27.672;2023-08-31T10:28:24;9.93;;;5.35;;
58372;SDS011;44177;43.356;27.672;2023-08-31T10:34:03;7.15;;;5.82;;
58372;SDS011;44177;43.356;27.672;2023-08-31T10:39:04;23.83;;;5.65;;
58372;SDS011;44177;43.356;27.672;2023-08-31T10:41:35;8.68;;;5.60;;
58372;SDS011;44177;43.356;27.672;2023-08-31T10:44:00;7.80;;;5.90;;
58372;SDS011;44177;43.356;27.672;2023-08-31T10:46:33;7.95;;;6.53;;
58372;SDS011;44177;43.356;27.672;2023-08-31T10:51:34;7.53;;;6.03;;
58372;SDS011;44177;43.356;27.672;2023-08-31T10:54:07;9.52;;;5.70;;
58372;SDS011;44177;43.356;27.672;2023-08-31T10:56:38;8.48;;;6.38;;
58372;SDS011;44177;43.356;27.672;2023-08-31T10:59:20;8.07;;;6.32;;
58372;SDS011;44177;43.356;27.672;2023-08-31T11:04:22;9.50;;;6.20;;
58372;SDS011;44177;43.356;27.672;2023-08-31T11:06:48;7.47;;;6.35;;
58372;SDS011;44177;43.356;27.672;2023-08-31T11:09:20;10.85;;;6.15;;
58372;SDS011;44177;43.356;27.672;2023-08-31T11:11:47;7.38;;;5.65;;
58372;SDS011;44177;43.356;27.672;2023-08-31T11:14:14;7.18;;;5.80;;
58372;SDS011;44177;43.356;27.672;2023-08-31T11:16:41;8.52;;;5.72;;
58372;SDS011;44177;43.356;27.672;2023-08-31T11:19:07;5.57;;;5.03;;
58372;SDS011;44177;43.356;27.672;2023-08-31T11:21:33;8.15;;;4.90;;
58372;SDS011;44177;43.356;27.672;2023-08-31T11:24:01;5.88;;;4.80;;
58372;SDS011;44177;43.356;27.672;2023-08-31T11:26:29;6.78;;;4.15;;
58372;SDS011;44177;43.356;27.672;2023-08-31T11:28:57;9.88;;;4.80;;
58372;SDS011;44177;43.356;27.672;2023-08-31T11:31:23;6.90;;;4.90;;
58372;SDS011;44177;43.356;27.672;2023-08-31T11:33:49;7.40;;;4.60;;
58372;SDS011;44177;43.356;27.672;2023-08-31T11:36:15;9.95;;;4.72;;
58372;SDS011;44177;43.356;27.672;2023-08-31T11:38:43;6.47;;;4.68;;
58372;SDS011;44177;43.356;27.672;2023-08-31T11:41:09;8.93;;;4.72;;
58372;SDS011;44177;43.356;27.672;2023-08-31T11:43:35;8.27;;;4.90;;
58372;SDS011;44177;43.356;27.672;2023-08-31T11:46:01;6.93;;;4.70;;
58372;SDS011;44177;43.356;27.672;2023-08-31T11:48:28;6.00;;;4.57;;
58372;SDS011;44177;43.356;27.672;2023-08-31T11:50:54;8.65;;;4.70;;
58372;SDS011;44177;43.356;27.672;2023-08-31T11:53:20;7.25;;;4.70;;
58372;SDS011;44177;43.356;27.672;2023-08-31T11:55:51;8.63;;;4.50;;
58372;SDS011;44177;43.356;27.672;2023-08-31T11:58:18;8.07;;;4.35;;
58372;SDS011;44177;43.356;27.672;2023-08-31T12:00:44;5.68;;;4.30;;
58372;SDS011;44177;43.356;27.672;2023-08-31T12:03:11;6.43;;;4.45;;
58372;SDS011;44177;43.356;27.672;2023-08-31T12:05:47;5.85;;;4.18;;
58372;SDS011;44177;43.356;27.672;2023-08-31T12:08:14;8.38;;;4.53;;
58372;SDS011;44177;43.356;27.672;2023-08-31T12:10:40;12.38;;;4.57;;
58372;SDS011;44177;43.356;27.672;2023-08-31T12:13:09;6.25;;;5.50;;
58372;SDS011;44177;43.356;27.672;2023-08-31T12:15:36;5.60;;;4.90;;
58372;SDS011;44177;43.356;27.672;2023-08-31T12:18:11;7.22;;;5.07;;
58372;SDS011;44177;43.356;27.672;2023-08-31T12:20:47;7.05;;;4.88;;
58372;SDS011;44177;43.356;27.672;2023-08-31T12:23:16;5.78;;;4.50;;
58372;SDS011;44177;43.356;27.672;2023-08-31T12:28:18;27.48;;;4.97;;
58372;SDS011;44177;43.356;27.672;2023-08-31T12:30:48;8.55;;;4.82;;
58372;SDS011;44177;43.356;27.672;2023-08-31T12:33:14;8.50;;;4.80;;
58372;SDS011;44177;43.356;27.672;2023-08-31T12:35:40;16.35;;;5.35;;
58372;SDS011;44177;43.356;27.672;2023-08-31T12:38:05;6.88;;;4.78;;
58372;SDS011;44177;43.356;27.672;2023-08-31T12:40:31;6.85;;;4.78;;
58372;SDS011;44177;43.356;27.672;2023-08-31T12:42:56;5.15;;;3.85;;
58372;SDS011;44177;43.356;27.672;2023-08-31T12:45:22;8.43;;;4.15;;
58372;SDS011;44177;43.356;27.672;2023-08-31T12:49:53;18.10;;;5.57;;
58372;SDS011;44177;43.356;27.672;2023-08-31T12:52:19;15.63;;;5.32;;
58372;SDS011;44177;43.356;27.672;2023-08-31T12:54:44;6.20;;;4.50;;
58372;SDS011;44177;43.356;27.672;2023-08-31T12:57:10;6.25;;;4.95;;
58372;SDS011;44177;43.356;27.672;2023-08-31T12:59:35;9.30;;;4.93;;
58372;SDS011;44177;43.356;27.672;2023-08-31T13:02:01;5.28;;;4.78;;
58372;SDS011;44177;43.356;27.672;2023-08-31T13:04:28;7.43;;;4.68;;
58372;SDS011;44177;43.356;27.672;2023-08-31T13:06:54;6.43;;;4.30;;
58372;SDS011;44177;43.356;27.672;2023-08-31T13:09:19;10.23;;;4.95;;
58372;SDS011;44177;43.356;27.672;2023-08-31T13:11:45;10.32;;;4.97;;
58372;SDS011;44177;43.356;27.672;2023-08-31T13:14:10;6.45;;;4.18;;
58372;SDS011;44177;43.356;27.672;2023-08-31T13:16:36;5.00;;;3.97;;
58372;SDS011;44177;43.356;27.672;2023-08-31T13:19:04;9.50;;;4.93;;
58372;SDS011;44177;43.356;27.672;2023-08-31T13:21:29;7.68;;;4.43;;
58372;SDS011;44177;43.356;27.672;2023-08-31T13:23:55;6.80;;;4.70;;
58372;SDS011;44177;43.356;27.672;2023-08-31T13:26:21;5.85;;;4.30;;
58372;SDS011;44177;43.356;27.672;2023-08-31T13:28:46;30.40;;;5.60;;
58372;SDS011;44177;43.356;27.672;2023-08-31T13:31:11;8.70;;;4.72;;
58372;SDS011;44177;43.356;27.672;2023-08-31T13:33:37;5.43;;;4.45;;
58372;SDS011;44177;43.356;27.672;2023-08-31T13:36:02;5.85;;;4.57;;
58372;SDS011;44177;43.356;27.672;2023-08-31T13:38:28;9.75;;;4.50;;
58372;SDS011;44177;43.356;27.672;2023-08-31T13:40:57;7.78;;;4.53;;
58372;SDS011;44177;43.356;27.672;2023-08-31T13:43:23;5.80;;;4.20;;
58372;SDS011;44177;43.356;27.672;2023-08-31T13:45:49;5.30;;;4.18;;
58372;SDS011;44177;43.356;27.672;2023-08-31T13:48:14;11.55;;;4.47;;
58372;SDS011;44177;43.356;27.672;2023-08-31T13:50:40;8.00;;;3.90;;
58372;SDS011;44177;43.356;27.672;2023-08-31T13:53:05;6.85;;;4.20;;
58372;SDS011;44177;43.356;27.672;2023-08-31T13:55:31;7.20;;;4.30;;
58372;SDS011;44177;43.356;27.672;2023-08-31T13:58:02;5.78;;;3.95;;
58372;SDS011;44177;43.356;27.672;2023-08-31T14:00:29;7.57;;;4.30;;
58372;SDS011;44177;43.356;27.672;2023-08-31T14:02:54;13.90;;;4.50;;
58372;SDS011;44177;43.356;27.672;2023-08-31T14:05:20;5.57;;;3.90;;
58372;SDS011;44177;43.356;27.672;2023-08-31T14:07:45;5.57;;;4.00;;
58372;SDS011;44177;43.356;27.672;2023-08-31T14:10:11;22.90;;;4.80;;
58372;SDS011;44177;43.356;27.672;2023-08-31T14:12:36;8.35;;;4.20;;
58372;SDS011;44177;43.356;27.672;2023-08-31T14:15:02;6.75;;;4.57;;
58372;SDS011;44177;43.356;27.672;2023-08-31T14:17:30;6.07;;;4.45;;
58372;SDS011;44177;43.356;27.672;2023-08-31T14:19:58;6.97;;;3.90;;
58372;SDS011;44177;43.356;27.672;2023-08-31T14:22:24;6.68;;;4.35;;
58372;SDS011;44177;43.356;27.672;2023-08-31T14:24:49;8.23;;;4.50;;
58372;SDS011;44177;43.356;27.672;2023-08-31T14:27:15;5.03;;;4.25;;
58372;SDS011;44177;43.356;27.672;2023-08-31T14:29:40;6.40;;;4.53;;
58372;SDS011;44177;43.356;27.672;2023-08-31T14:32:06;6.50;;;4.50;;
58372;SDS011;44177;43.356;27.672;2023-08-31T14:34:32;7.75;;;4.57;;
58372;SDS011;44177;43.356;27.672;2023-08-31T14:36:57;6.03;;;4.60;;
58372;SDS011;44177;43.356;27.672;2023-08-31T14:39:24;8.88;;;4.38;;
58372;SDS011;44177;43.356;27.672;2023-08-31T14:41:54;9.15;;;4.97;;
58372;SDS011;44177;43.356;27.672;2023-08-31T14:44:23;7.65;;;4.60;;
58372;SDS011;44177;43.356;27.672;2023-08-31T14:46:48;8.73;;;4.75;;